createdAt,value
2022-12-13T00:02:21.508Z,1.37
2022-12-13T00:05:25.337Z,2.60
2022-12-13T00:08:29.216Z,2.10
2022-12-13T00:11:34.872Z,1.40
2022-12-13T00:14:38.990Z,1.93
2022-12-13T00:17:42.919Z,1.90
2022-12-13T00:20:46.771Z,1.00
2022-12-13T00:23:51.347Z,1.23
2022-12-13T00:26:57.857Z,1.37
2022-12-13T00:30:01.716Z,1.60
2022-12-13T00:33:06.772Z,2.20
2022-12-13T00:36:11.432Z,2.50
2022-12-13T00:39:16.848Z,2.57
2022-12-13T00:42:22.216Z,2.33
2022-12-13T00:45:26.156Z,1.70
2022-12-13T00:48:29.910Z,3.13
2022-12-13T00:51:35.734Z,2.90
2022-12-13T00:54:39.597Z,2.40
2022-12-13T00:57:44.869Z,2.63
2022-12-13T01:00:48.696Z,2.33
2022-12-13T01:03:53.214Z,2.50
2022-12-13T01:06:57.091Z,1.80
2022-12-13T01:10:01.040Z,1.40
2022-12-13T01:13:06.429Z,2.40
2022-12-13T01:16:11.770Z,2.30
2022-12-13T01:19:16.340Z,2.50
2022-12-13T01:22:20.458Z,2.10
2022-12-13T01:25:24.338Z,1.80
2022-12-13T01:28:30.397Z,2.17
2022-12-13T01:31:34.858Z,2.10
2022-12-13T01:34:38.712Z,2.17
2022-12-13T01:37:43.396Z,1.83
2022-12-13T01:40:49.149Z,1.40
2022-12-13T01:43:57.577Z,3.20
2022-12-13T01:47:02.237Z,3.60
2022-12-13T01:50:10.810Z,2.60
2022-12-13T01:53:19.027Z,4.87
2022-12-13T01:56:27.156Z,2.57
2022-12-13T01:59:32.757Z,3.13
2022-12-13T02:02:37.636Z,2.43
2022-12-13T02:05:45.470Z,3.73
2022-12-13T02:08:49.025Z,2.50
2022-12-13T02:11:53.337Z,4.10
2022-12-13T02:15:01.110Z,2.03
2022-12-13T02:18:20.196Z,2.60
2022-12-13T02:21:30.831Z,3.53
2022-12-13T02:24:55.307Z,7.17
2022-12-13T02:28:30.536Z,2.33
2022-12-13T02:31:49.510Z,2.97
2022-12-13T02:34:58.454Z,2.90
2022-12-13T02:38:10.797Z,3.03
2022-12-13T02:41:19.698Z,3.27
2022-12-13T02:44:27.650Z,2.60
2022-12-13T02:47:34.990Z,4.17
2022-12-13T02:50:40.476Z,3.53
2022-12-13T02:53:45.818Z,4.13
2022-12-13T02:56:56.276Z,3.23
2022-12-13T03:00:05.318Z,3.40
2022-12-13T03:03:21.497Z,4.30
2022-12-13T03:06:36.637Z,3.53
2022-12-13T03:09:59.929Z,2.60
2022-12-13T03:13:25.649Z,4.07
2022-12-13T03:16:38.572Z,3.43
2022-12-13T03:19:44.290Z,2.30
2022-12-13T03:22:47.904Z,3.20
2022-12-13T03:25:54.816Z,4.33
2022-12-13T03:28:59.190Z,3.40
2022-12-13T03:32:06.351Z,3.63
2022-12-13T03:35:21.944Z,3.37
2022-12-13T03:38:27.252Z,3.50
2022-12-13T03:41:32.990Z,2.97
2022-12-13T03:44:36.930Z,3.17
2022-12-13T03:47:40.850Z,3.13
2022-12-13T03:50:46.035Z,3.67
2022-12-13T03:53:49.828Z,4.40
2022-12-13T03:56:53.790Z,2.90
2022-12-13T03:59:57.796Z,3.40
2022-12-13T04:03:01.713Z,3.73
2022-12-13T04:06:08.185Z,3.67
2022-12-13T04:09:12.135Z,3.77
2022-12-13T04:12:33.425Z,3.33
2022-12-13T04:15:37.617Z,4.33
2022-12-13T04:18:41.576Z,3.70
2022-12-13T04:21:46.809Z,4.40
2022-12-13T04:24:50.590Z,2.60
2022-12-13T04:27:54.656Z,3.93
2022-12-13T04:30:58.577Z,3.30
2022-12-13T04:34:02.411Z,4.20
2022-12-13T04:37:08.289Z,4.77
2022-12-13T04:40:13.224Z,4.67
2022-12-13T04:43:25.650Z,4.13
2022-12-13T04:46:29.239Z,3.83
2022-12-13T04:49:34.182Z,5.53
2022-12-13T04:52:39.886Z,6.23
2022-12-13T04:55:43.671Z,4.57
2022-12-13T04:58:47.735Z,6.70
2022-12-13T05:01:51.540Z,5.93
2022-12-13T05:04:55.282Z,5.20
2022-12-13T05:08:01.504Z,5.80
2022-12-13T05:11:05.650Z,6.50
2022-12-13T05:14:09.556Z,4.27
2022-12-13T05:17:13.549Z,4.30
2022-12-13T05:20:17.539Z,5.17
2022-12-13T05:23:24.436Z,5.83
2022-12-13T05:26:28.495Z,5.33
2022-12-13T05:29:32.456Z,6.37
2022-12-13T05:32:42.574Z,9.10
2022-12-13T05:35:46.749Z,6.10
2022-12-13T05:38:52.016Z,6.37
2022-12-13T05:42:01.749Z,5.07
2022-12-13T05:45:07.410Z,5.03
2022-12-13T05:48:11.577Z,5.53
2022-12-13T05:51:15.293Z,6.97
2022-12-13T05:54:20.589Z,6.77
2022-12-13T05:57:24.730Z,5.37
2022-12-13T06:00:30.894Z,7.00
2022-12-13T06:03:35.113Z,6.77
2022-12-13T06:06:39.098Z,5.50
2022-12-13T06:09:44.516Z,6.07
2022-12-13T06:12:48.463Z,8.43
2022-12-13T06:15:52.636Z,9.43
2022-12-13T06:19:05.509Z,9.17
2022-12-13T06:22:09.443Z,6.97
2022-12-13T06:25:30.957Z,7.23
2022-12-13T06:28:35.815Z,10.07
2022-12-13T06:31:39.655Z,7.47
2022-12-13T06:34:43.457Z,5.67
2022-12-13T06:37:47.344Z,7.30
2022-12-13T06:40:52.777Z,5.57
2022-12-13T06:43:56.558Z,8.17
2022-12-13T06:47:11.897Z,11.00
2022-12-13T06:50:16.857Z,8.23
2022-12-13T06:53:20.989Z,8.30
2022-12-13T06:56:26.277Z,8.73
2022-12-13T06:59:30.011Z,11.70
2022-12-13T07:02:34.197Z,10.03
2022-12-13T07:05:39.629Z,9.30
2022-12-13T07:08:52.077Z,8.30
2022-12-13T07:11:57.392Z,9.97
2022-12-13T07:15:01.335Z,10.47
2022-12-13T07:18:05.604Z,9.03
2022-12-13T07:21:21.932Z,8.60
2022-12-13T07:24:26.416Z,10.13
2022-12-13T07:27:31.769Z,6.67
2022-12-13T07:30:41.048Z,8.97
2022-12-13T07:33:45.769Z,7.30
2022-12-13T07:36:51.656Z,9.03
2022-12-13T07:40:01.105Z,8.47
2022-12-13T07:43:08.621Z,11.50
2022-12-13T07:46:13.048Z,6.20
2022-12-13T07:49:17.096Z,11.90
2022-12-13T07:52:21.030Z,7.80
2022-12-13T07:55:33.600Z,8.13
2022-12-13T07:58:42.440Z,9.80
2022-12-13T08:01:46.442Z,5.73
2022-12-13T08:04:54.368Z,8.70
2022-12-13T08:07:59.225Z,8.13
2022-12-13T08:11:03.955Z,8.37
2022-12-13T08:14:10.372Z,10.53
2022-12-13T08:17:14.411Z,8.77
2022-12-13T08:20:22.144Z,10.67
2022-12-13T08:23:26.598Z,6.33
2022-12-13T08:26:30.519Z,6.67
2022-12-13T08:29:36.790Z,8.23
2022-12-13T08:32:40.885Z,8.47
2022-12-13T08:35:45.229Z,5.47
2022-12-13T08:38:49.637Z,9.63
2022-12-13T08:41:53.440Z,8.43
2022-12-13T08:44:58.679Z,10.33
2022-12-13T08:48:03.479Z,11.17
2022-12-13T08:51:09.429Z,8.03
2022-12-13T08:54:13.456Z,7.90
2022-12-13T08:57:37.481Z,9.17
2022-12-13T09:00:43.211Z,9.83
2022-12-13T09:03:47.369Z,9.87
2022-12-13T09:06:51.290Z,9.10
2022-12-13T09:09:55.341Z,10.17
2022-12-13T09:13:01.282Z,10.33
2022-12-13T09:16:14.216Z,8.43
2022-12-13T09:19:27.122Z,9.47
2022-12-13T09:22:33.634Z,12.50
2022-12-13T09:25:38.893Z,11.97
2022-12-13T09:28:43.512Z,14.07
2022-12-13T09:31:53.049Z,10.60
2022-12-13T09:34:57.419Z,13.53
2022-12-13T09:38:01.350Z,14.23
2022-12-13T09:41:19.324Z,12.23
2022-12-13T09:44:32.293Z,11.20
2022-12-13T09:47:46.987Z,10.33
2022-12-13T09:51:17.272Z,10.77
2022-12-13T09:54:20.969Z,9.30
2022-12-13T09:57:30.947Z,9.17
2022-12-13T10:00:37.679Z,7.13
2022-12-13T10:03:48.336Z,8.60
2022-12-13T10:06:55.097Z,10.60
2022-12-13T10:10:02.636Z,10.20
2022-12-13T10:13:16.458Z,5.87
2022-12-13T10:16:27.836Z,9.83
2022-12-13T10:19:44.855Z,14.37
2022-12-13T10:23:15.129Z,13.33
2022-12-13T10:26:24.184Z,11.23
2022-12-13T10:29:28.896Z,11.73
2022-12-13T10:32:37.311Z,9.93
2022-12-13T10:35:43.390Z,8.73
2022-12-13T10:38:48.089Z,10.80
2022-12-13T10:42:04.915Z,13.07
2022-12-13T10:45:23.815Z,11.87
2022-12-13T10:48:38.992Z,11.80
2022-12-13T10:51:45.056Z,7.80
2022-12-13T10:54:51.335Z,9.37
2022-12-13T10:57:57.639Z,9.43
2022-12-13T11:01:10.963Z,8.87
2022-12-13T11:04:28.183Z,10.63
2022-12-13T11:07:34.936Z,9.17
2022-12-13T11:10:39.864Z,10.17
2022-12-13T11:13:47.536Z,12.10
2022-12-13T11:16:53.798Z,7.83
2022-12-13T11:19:59.709Z,7.30
2022-12-13T11:23:08.457Z,8.77
2022-12-13T11:26:23.963Z,9.70
2022-12-13T11:29:52.821Z,9.97
2022-12-13T11:33:16.237Z,9.67
2022-12-13T11:36:33.476Z,9.20
2022-12-13T11:39:43.409Z,8.70
2022-12-13T11:42:53.497Z,9.73
2022-12-13T11:46:01.707Z,6.87
2022-12-13T11:49:11.878Z,9.23
2022-12-13T11:52:20.576Z,12.17
2022-12-13T11:55:36.276Z,9.43
2022-12-13T11:59:03.084Z,9.17
2022-12-13T12:02:16.756Z,10.43
2022-12-13T12:05:29.811Z,8.53
2022-12-13T12:08:40.976Z,8.63
2022-12-13T12:11:52.996Z,9.80
2022-12-13T12:15:05.648Z,7.80
2022-12-13T12:18:19.636Z,10.00
2022-12-13T12:22:04.945Z,12.87
2022-12-13T12:25:15.510Z,11.60
2022-12-13T12:28:34.709Z,12.30
2022-12-13T12:31:50.911Z,10.47
2022-12-13T12:35:06.916Z,8.20
2022-12-13T12:38:28.742Z,8.50
2022-12-13T12:41:45.530Z,10.83
2022-12-13T12:45:05.516Z,10.07
2022-12-13T12:51:56.933Z,9.90
2022-12-13T12:55:12.263Z,9.63
2022-12-13T12:58:25.454Z,8.77
2022-12-13T13:01:47.001Z,11.80
2022-12-13T13:04:56.696Z,11.17
2022-12-13T13:08:07.191Z,9.07
2022-12-13T13:11:24.831Z,8.60
2022-12-13T13:14:36.729Z,9.63
2022-12-13T13:17:48.855Z,10.73
2022-12-13T13:21:33.392Z,12.23
2022-12-13T13:24:37.249Z,11.67
2022-12-13T13:27:44.276Z,9.93
2022-12-13T13:31:06.143Z,14.17
2022-12-13T13:34:25.813Z,10.40
2022-12-13T13:37:47.594Z,11.80
2022-12-13T13:40:51.484Z,12.00
2022-12-13T13:43:55.516Z,12.00
2022-12-13T13:47:15.494Z,13.20
2022-12-13T13:50:54.628Z,13.13
2022-12-13T13:54:50.271Z,12.87
2022-12-13T13:58:31.396Z,10.87
2022-12-13T14:02:17.366Z,10.80
2022-12-13T14:05:54.112Z,12.67
2022-12-13T14:09:39.453Z,10.37
2022-12-13T14:13:16.292Z,9.97
2022-12-13T14:16:55.589Z,8.87
2022-12-13T14:20:45.660Z,9.83
2022-12-13T14:24:04.637Z,13.00
2022-12-13T14:27:21.170Z,11.83
2022-12-13T14:30:29.205Z,14.73
2022-12-13T14:33:33.470Z,11.93
2022-12-13T14:36:39.396Z,13.23
2022-12-13T14:39:46.628Z,12.23
2022-12-13T14:42:55.076Z,13.30
2022-12-13T14:46:00.978Z,13.20
2022-12-13T14:49:07.728Z,15.37
2022-12-13T14:52:27.000Z,11.77
2022-12-13T14:55:33.956Z,17.60
2022-12-13T14:58:38.489Z,17.27
2022-12-13T15:01:43.457Z,19.17
2022-12-13T15:04:48.557Z,21.57
2022-12-13T15:07:54.238Z,20.53
2022-12-13T15:11:03.085Z,21.83
2022-12-13T15:14:16.691Z,22.00
2022-12-13T15:17:28.316Z,24.90
2022-12-13T15:20:35.330Z,21.67
2022-12-13T15:23:48.882Z,24.17
2022-12-13T15:26:59.202Z,30.13
2022-12-13T15:30:03.238Z,22.83
2022-12-13T15:33:09.863Z,24.03
2022-12-13T15:36:18.532Z,24.63
2022-12-13T15:39:25.697Z,62.63
2022-12-13T15:42:33.556Z,38.60
2022-12-13T15:45:37.819Z,38.63
2022-12-13T15:48:48.895Z,73.40
2022-12-13T15:51:57.655Z,176.03
2022-12-13T15:55:28.667Z,75.27
2022-12-13T15:58:35.675Z,24.93
2022-12-13T16:01:39.617Z,24.67
2022-12-13T16:04:43.776Z,17.63
2022-12-13T16:07:56.315Z,37.73
2022-12-13T16:11:02.475Z,15.17
2022-12-13T16:14:29.574Z,22.57
2022-12-13T16:17:34.835Z,33.47
2022-12-13T16:20:38.868Z,42.33
2022-12-13T16:23:48.918Z,44.93
2022-12-13T16:26:54.616Z,44.00
2022-12-13T16:29:58.510Z,57.77
2022-12-13T16:33:18.842Z,37.37
2022-12-13T16:36:26.276Z,42.10
2022-12-13T16:39:30.271Z,58.60
2022-12-13T16:42:35.710Z,36.47
2022-12-13T16:45:43.110Z,33.03
2022-12-13T16:48:47.156Z,31.53
2022-12-13T16:51:50.977Z,30.67
2022-12-13T16:54:54.917Z,24.67
2022-12-13T16:58:02.254Z,35.13
2022-12-13T17:01:11.324Z,27.57
2022-12-13T17:04:20.642Z,25.07
2022-12-13T17:07:25.276Z,34.43
2022-12-13T17:10:29.897Z,27.57
2022-12-13T17:13:35.098Z,33.67
2022-12-13T17:16:39.093Z,36.60
2022-12-13T17:19:43.112Z,33.53
2022-12-13T17:22:47.675Z,34.30
2022-12-13T17:25:58.047Z,42.27
2022-12-13T17:29:04.853Z,42.13
2022-12-13T17:32:08.750Z,45.63
2022-12-13T17:35:17.879Z,54.30
2022-12-13T17:38:22.204Z,36.67
2022-12-13T17:41:26.358Z,42.20
2022-12-13T17:44:31.923Z,38.53
2022-12-13T17:47:35.857Z,41.17
2022-12-13T17:50:39.917Z,34.77
2022-12-13T17:53:45.533Z,37.37
2022-12-13T17:56:49.376Z,33.53
2022-12-13T17:59:54.689Z,33.80
2022-12-13T18:02:58.866Z,27.73
2022-12-13T18:06:02.596Z,32.20
2022-12-13T18:09:06.736Z,36.87
2022-12-13T18:12:10.716Z,34.03
2022-12-13T18:15:16.090Z,33.80
2022-12-13T18:18:20.759Z,33.07
2022-12-13T18:21:28.137Z,39.40
2022-12-13T18:24:32.204Z,49.00
2022-12-13T18:27:36.353Z,42.23
2022-12-13T18:30:41.744Z,43.77
2022-12-13T18:33:47.836Z,34.00
2022-12-13T18:36:52.004Z,28.20
2022-12-13T18:39:55.979Z,34.10
2022-12-13T18:42:59.849Z,32.77
2022-12-13T18:46:06.101Z,30.80
2022-12-13T18:49:12.132Z,32.90
2022-12-13T18:52:15.910Z,34.93
2022-12-13T18:55:19.769Z,32.00
2022-12-13T18:58:23.610Z,33.63
2022-12-13T19:01:29.035Z,37.77
2022-12-13T19:04:35.143Z,32.50
2022-12-13T19:07:39.296Z,27.07
2022-12-13T19:10:46.495Z,44.13
2022-12-13T19:13:50.996Z,27.90
2022-12-13T19:16:56.397Z,19.17
2022-12-13T19:20:02.358Z,24.13
2022-12-13T19:23:06.115Z,19.13
2022-12-13T19:26:11.255Z,19.60
2022-12-13T19:29:16.116Z,39.93
2022-12-13T19:32:21.883Z,23.27
2022-12-13T19:35:26.315Z,23.30
2022-12-13T19:38:30.250Z,25.37
2022-12-13T19:41:34.269Z,22.30
2022-12-13T19:44:38.070Z,26.80
2022-12-13T19:47:43.329Z,24.90
2022-12-13T19:50:52.730Z,15.37
2022-12-13T19:53:56.672Z,14.50
2022-12-13T19:57:06.871Z,14.23
2022-12-13T20:00:13.149Z,12.40
2022-12-13T20:03:19.022Z,16.43
2022-12-13T20:06:24.476Z,15.50
2022-12-13T20:09:29.909Z,13.60
2022-12-13T20:12:38.960Z,14.47
2022-12-13T20:15:48.646Z,13.70
2022-12-13T20:18:57.856Z,13.30
2022-12-13T20:22:01.596Z,16.33
2022-12-13T20:25:07.338Z,19.07
2022-12-13T20:28:16.226Z,19.30
2022-12-13T20:31:21.777Z,21.30
2022-12-13T20:34:27.156Z,13.53
2022-12-13T20:37:31.595Z,14.00
2022-12-13T20:40:35.549Z,29.33
2022-12-13T20:43:39.698Z,14.30
2022-12-13T20:46:43.581Z,11.43
2022-12-13T20:49:49.200Z,8.37
2022-12-13T20:52:53.630Z,8.17
2022-12-13T20:55:58.569Z,10.67
2022-12-13T20:59:03.091Z,12.77
2022-12-13T21:02:06.980Z,23.20
2022-12-13T21:05:17.569Z,24.80
2022-12-13T21:08:41.898Z,18.23
2022-12-13T21:11:47.818Z,28.17
2022-12-13T21:14:51.589Z,27.47
2022-12-13T21:17:57.796Z,32.77
2022-12-13T21:21:03.129Z,54.63
2022-12-13T21:24:07.829Z,24.47
2022-12-13T21:27:11.610Z,44.40
2022-12-13T21:30:15.937Z,29.50
2022-12-13T21:33:19.816Z,52.73
2022-12-13T21:36:26.809Z,41.30
2022-12-13T21:39:31.215Z,13.17
2022-12-13T21:42:34.996Z,25.30
2022-12-13T21:45:38.952Z,20.90
2022-12-13T21:48:44.157Z,27.37
2022-12-13T21:51:49.401Z,48.97
2022-12-13T21:55:15.312Z,13.80
2022-12-13T21:58:34.529Z,17.13
2022-12-13T22:01:55.690Z,16.07
2022-12-13T22:05:00.555Z,14.23
2022-12-13T22:08:06.677Z,17.03
2022-12-13T22:11:21.369Z,17.30
2022-12-13T22:14:27.691Z,16.40
2022-12-13T22:17:35.804Z,11.90
2022-12-13T22:20:40.092Z,15.37
2022-12-13T22:23:45.516Z,15.10
2022-12-13T22:26:49.271Z,12.17
2022-12-13T22:29:53.756Z,15.03
2022-12-13T22:32:57.709Z,11.93
2022-12-13T22:36:02.810Z,14.37
2022-12-13T22:39:08.335Z,15.60
2022-12-13T22:42:12.597Z,25.40
2022-12-13T22:45:16.595Z,18.97
2022-12-13T22:48:20.416Z,14.33
2022-12-13T22:51:24.290Z,12.87
2022-12-13T22:54:29.658Z,13.97
2022-12-13T22:57:33.417Z,11.27
2022-12-13T23:00:37.267Z,12.23
2022-12-13T23:03:42.717Z,11.07
2022-12-13T23:06:46.766Z,11.90
2022-12-13T23:09:52.155Z,11.07
2022-12-13T23:13:03.814Z,16.60
2022-12-13T23:16:08.448Z,11.97
2022-12-13T23:19:41.053Z,12.70
2022-12-13T23:22:38.609Z,12.23
2022-12-13T23:25:43.876Z,12.40
2022-12-13T23:28:55.171Z,12.17
2022-12-13T23:31:58.917Z,11.83
2022-12-13T23:35:02.895Z,12.30
2022-12-13T23:38:06.715Z,12.57
2022-12-13T23:41:14.335Z,13.90
2022-12-13T23:44:18.210Z,11.23
2022-12-13T23:47:22.096Z,12.23
2022-12-13T23:50:26.033Z,10.90
2022-12-13T23:53:30.197Z,15.33
2022-12-13T23:56:36.392Z,13.40
2022-12-13T23:59:40.916Z,12.70
